RAMEN44 OKDI-OKDI
Flight info
| Callsign | RAMEN44 |
|---|---|
| Flight time | 0h 1m |
| Altitude | 1500 |
| Route | OKDI VFR |
| Aircraft | H60/L-L/C |
Departure
| Time | 2026-04-22 15:10 |
|---|---|
| Airport | Udairi Army Air Field (OKDI) |
Arrival
| Time | 2026-04-22 15:11 |
|---|---|
| Airport | Udairi Army Air Field (OKDI) |
| Time | Latitude | Longitude | Altitude | Speed | Heading |
|---|---|---|---|---|---|
| 2026-04-22 15:04 | 29.70278 | 47.43609 | 431 ft | 0 kts | 181° |
| 2026-04-22 15:04 | 29.70240 | 47.43599 | 442 ft | 10 kts | 186° |
| 2026-04-22 15:04 | 29.70153 | 47.43565 | 448 ft | 23 kts | 192° |
| 2026-04-22 15:05 | 29.70031 | 47.43519 | 502 ft | 22 kts | 198° |
| 2026-04-22 15:05 | 29.69894 | 47.43441 | 559 ft | 23 kts | 206° |
| 2026-04-22 15:05 | 29.69769 | 47.43364 | 593 ft | 15 kts | 213° |
| 2026-04-22 15:06 | 29.69668 | 47.43308 | 592 ft | 16 kts | 219° |
| 2026-04-22 15:06 | 29.69598 | 47.43246 | 593 ft | 9 kts | 225° |
| 2026-04-22 15:06 | 29.69565 | 47.43219 | 566 ft | 6 kts | 232° |
| 2026-04-22 15:06 | 29.69522 | 47.43211 | 504 ft | 23 kts | 237° |
| 2026-04-22 15:07 | 29.69456 | 47.43159 | 513 ft | 25 kts | 238° |
| 2026-04-22 15:08 | 29.69431 | 47.43140 | 446 ft | 22 kts | 238° |
| 2026-04-22 15:08 | 29.69380 | 47.43247 | 587 ft | 17 kts | 242° |
| 2026-04-22 15:09 | 29.69336 | 47.43368 | 743 ft | 15 kts | 249° |
| 2026-04-22 15:09 | 29.69282 | 47.43459 | 895 ft | 13 kts | 256° |
| 2026-04-22 15:09 | 29.69221 | 47.43514 | 1061 ft | 10 kts | 263° |
| 2026-04-22 15:09 | 29.69154 | 47.43467 | 1198 ft | 20 kts | 271° |
| 2026-04-22 15:10 | 29.69138 | 47.43234 | 1372 ft | 37 kts | 312° |
| 2026-04-22 15:10 | 29.69328 | 47.42961 | 1678 ft | 53 kts | 340° |
| 2026-04-22 15:10 | 29.69722 | 47.42753 | 2083 ft | 70 kts | 346° |
| 2026-04-22 15:10 | 29.70244 | 47.42643 | 1880 ft | 84 kts | 350° |
| 2026-04-22 15:11 | 29.70864 | 47.42609 | 1554 ft | 90 kts | 357° |
| 2026-04-22 15:11 | 29.71466 | 47.42540 | 1172 ft | 84 kts | 353° |
| 2026-04-22 15:11 | 29.71960 | 47.42431 | 853 ft | 59 kts | 27° |
| 2026-04-22 15:11 | 29.72272 | 47.42319 | 585 ft | 39 kts | 125° |
| 2026-04-22 15:12 | 29.72462 | 47.42346 | 511 ft | 20 kts | 156° |
| 2026-04-22 15:12 | 29.72471 | 47.42506 | 465 ft | 28 kts | 165° |
| 2026-04-22 15:12 | 29.72273 | 47.42737 | 648 ft | 53 kts | 162° |
| 2026-04-22 15:12 | 29.71872 | 47.43008 | 865 ft | 79 kts | 158° |
| 2026-04-22 15:13 | 29.71318 | 47.43273 | 916 ft | 90 kts | 163° |
| 2026-04-22 15:13 | 29.70722 | 47.43422 | 672 ft | 79 kts | 180° |
| 2026-04-22 15:13 | 29.70289 | 47.43420 | 505 ft | 42 kts | 186° |
| 2026-04-22 15:13 | 29.70191 | 47.43445 | 422 ft | 0 kts | 186° |
| 2026-04-22 15:16 | 29.70184 | 47.43444 | 428 ft | 7 kts | 188° |
| 2026-04-22 15:16 | 29.70046 | 47.43415 | 506 ft | 32 kts | 195° |
| 2026-04-22 15:16 | 29.69738 | 47.43319 | 752 ft | 61 kts | 202° |
| 2026-04-22 15:16 | 29.69175 | 47.43341 | 1066 ft | 95 kts | 180° |
| 2026-04-22 15:17 | 29.68615 | 47.43752 | 1512 ft | 93 kts | 153° |
| 2026-04-22 15:17 | 29.68084 | 47.44135 | 2043 ft | 88 kts | 153° |
| 2026-04-22 15:17 | 29.67556 | 47.44481 | 1940 ft | 94 kts | 155° |
| 2026-04-22 15:17 | 29.66926 | 47.44845 | 1591 ft | 107 kts | 158° |
| 2026-04-22 15:18 | 29.66249 | 47.45202 | 1547 ft | 105 kts | 159° |
| 2026-04-22 15:18 | 29.65566 | 47.45596 | 1539 ft | 120 kts | 155° |
| 2026-04-22 15:18 | 29.64870 | 47.46218 | 1540 ft | 132 kts | 141° |
| 2026-04-22 15:18 | 29.64256 | 47.47024 | 1540 ft | 136 kts | 130° |
| 2026-04-22 15:19 | 29.63766 | 47.47964 | 1550 ft | 138 kts | 120° |
| 2026-04-22 15:19 | 29.63304 | 47.48970 | 1539 ft | 142 kts | 120° |
| 2026-04-22 15:19 | 29.62903 | 47.49834 | 1561 ft | 106 kts | 120° |
| 2026-04-22 15:19 | 29.62551 | 47.50597 | 1552 ft | 109 kts | 120° |
| 2026-04-22 15:20 | 29.62312 | 47.51119 | 1557 ft | 109 kts | 120° |
| 2026-04-22 15:20 | 29.61841 | 47.52141 | 1551 ft | 109 kts | 120° |
| 2026-04-22 15:20 | 29.61484 | 47.52912 | 1552 ft | 109 kts | 120° |
| 2026-04-22 15:20 | 29.61129 | 47.53683 | 1552 ft | 109 kts | 120° |
| 2026-04-22 15:21 | 29.60773 | 47.54455 | 1550 ft | 110 kts | 120° |
| 2026-04-22 15:21 | 29.60415 | 47.55228 | 1550 ft | 109 kts | 120° |
| 2026-04-22 15:21 | 29.60060 | 47.55999 | 1553 ft | 109 kts | 120° |
| 2026-04-22 15:21 | 29.59703 | 47.56771 | 1549 ft | 110 kts | 120° |
| 2026-04-22 15:22 | 29.59347 | 47.57544 | 1549 ft | 109 kts | 120° |
| 2026-04-22 15:22 | 29.58990 | 47.58318 | 1550 ft | 109 kts | 120° |
| 2026-04-22 15:22 | 29.58636 | 47.59088 | 1550 ft | 109 kts | 120° |
| 2026-04-22 15:22 | 29.58281 | 47.59858 | 1550 ft | 109 kts | 120° |
| 2026-04-22 15:23 | 29.57928 | 47.60629 | 1549 ft | 109 kts | 120° |
| 2026-04-22 15:23 | 29.57572 | 47.61400 | 1549 ft | 109 kts | 120° |
| 2026-04-22 15:23 | 29.57219 | 47.62170 | 1551 ft | 109 kts | 120° |
| 2026-04-22 15:23 | 29.56869 | 47.62937 | 1551 ft | 108 kts | 120° |
| 2026-04-22 15:24 | 29.56859 | 47.62961 | 1551 ft | 108 kts | 120° |
| 2026-04-22 15:24 | 29.56730 | 47.63245 | 1551 ft | 108 kts | 120° |
| 2026-04-22 15:25 | 29.56387 | 47.63996 | 1550 ft | 107 kts | 120° |
| 2026-04-22 15:25 | 29.56037 | 47.64765 | 1550 ft | 107 kts | 120° |
| 2026-04-22 15:25 | 29.55690 | 47.65524 | 1551 ft | 107 kts | 120° |
| 2026-04-22 15:25 | 29.55337 | 47.66330 | 1546 ft | 122 kts | 117° |
| 2026-04-22 15:26 | 29.55108 | 47.67311 | 1545 ft | 135 kts | 102° |
| 2026-04-22 15:26 | 29.55114 | 47.68411 | 1545 ft | 141 kts | 85° |
| 2026-04-22 15:26 | 29.55209 | 47.69389 | 1553 ft | 106 kts | 85° |
| 2026-04-22 15:26 | 29.55287 | 47.70257 | 1554 ft | 109 kts | 85° |
| 2026-04-22 15:27 | 29.55365 | 47.71130 | 1551 ft | 110 kts | 85° |
| 2026-04-22 15:27 | 29.55443 | 47.72001 | 1551 ft | 109 kts | 85° |
| 2026-04-22 15:27 | 29.55522 | 47.72873 | 1551 ft | 110 kts | 85° |
| 2026-04-22 15:27 | 29.55601 | 47.73741 | 1550 ft | 110 kts | 85° |
| 2026-04-22 15:28 | 29.55680 | 47.74613 | 1550 ft | 110 kts | 85° |
| 2026-04-22 15:28 | 29.55759 | 47.75482 | 1552 ft | 110 kts | 85° |
| 2026-04-22 15:28 | 29.55836 | 47.76358 | 1549 ft | 110 kts | 85° |
| 2026-04-22 15:28 | 29.55912 | 47.77231 | 1550 ft | 110 kts | 85° |
| 2026-04-22 15:29 | 29.55988 | 47.78106 | 1550 ft | 110 kts | 85° |
| 2026-04-22 15:29 | 29.56065 | 47.78976 | 1550 ft | 110 kts | 85° |
| 2026-04-22 15:29 | 29.56143 | 47.79846 | 1550 ft | 109 kts | 85° |
| 2026-04-22 15:30 | 29.56270 | 47.81291 | 1550 ft | 109 kts | 85° |
| 2026-04-22 15:30 | 29.56375 | 47.82454 | 1550 ft | 109 kts | 85° |
| 2026-04-22 15:30 | 29.56454 | 47.83323 | 1549 ft | 110 kts | 85° |
| 2026-04-22 15:30 | 29.56437 | 47.84175 | 1537 ft | 110 kts | 100° |
| 2026-04-22 15:31 | 29.55858 | 47.84808 | 1530 ft | 128 kts | 150° |
| 2026-04-22 15:31 | 29.54994 | 47.84959 | 1541 ft | 120 kts | 177° |
| 2026-04-22 15:31 | 29.54210 | 47.84743 | 1529 ft | 121 kts | 207° |
| 2026-04-22 15:31 | 29.53758 | 47.83969 | 1554 ft | 114 kts | 243° |
| 2026-04-22 15:32 | 29.53471 | 47.83162 | 1548 ft | 107 kts | 255° |
| 2026-04-22 15:32 | 29.53648 | 47.82303 | 1560 ft | 115 kts | 282° |
| 2026-04-22 15:32 | 29.53740 | 47.81692 | 1510 ft | 122 kts | 279° |
| 2026-04-22 15:32 | 29.53876 | 47.80736 | 1212 ft | 110 kts | 286° |
| 2026-04-22 15:33 | 29.54182 | 47.79991 | 880 ft | 101 kts | 296° |
| 2026-04-22 15:33 | 29.54521 | 47.79314 | 674 ft | 102 kts | 301° |
| 2026-04-22 15:33 | 29.54879 | 47.78573 | 587 ft | 109 kts | 299° |
| 2026-04-22 15:33 | 29.55214 | 47.77768 | 667 ft | 115 kts | 296° |
| 2026-04-22 15:34 | 29.55576 | 47.76930 | 620 ft | 119 kts | 297° |
| 2026-04-22 15:34 | 29.55955 | 47.76076 | 600 ft | 120 kts | 297° |
| 2026-04-22 15:34 | 29.56336 | 47.75221 | 589 ft | 116 kts | 297° |
| 2026-04-22 15:34 | 29.56684 | 47.74442 | 601 ft | 104 kts | 297° |
| 2026-04-22 15:35 | 29.57068 | 47.73589 | 577 ft | 133 kts | 297° |
| 2026-04-22 15:35 | 29.57485 | 47.72652 | 597 ft | 105 kts | 297° |
| 2026-04-22 15:35 | 29.57731 | 47.72073 | 593 ft | 78 kts | 297° |
| 2026-04-22 15:35 | 29.58007 | 47.71443 | 575 ft | 99 kts | 297° |
| 2026-04-22 15:36 | 29.58341 | 47.70683 | 555 ft | 113 kts | 297° |
| 2026-04-22 15:36 | 29.58706 | 47.69854 | 576 ft | 120 kts | 297° |
| 2026-04-22 15:36 | 29.59081 | 47.69004 | 582 ft | 119 kts | 297° |
| 2026-04-22 15:36 | 29.59457 | 47.68150 | 581 ft | 122 kts | 297° |
| 2026-04-22 15:37 | 29.59848 | 47.67260 | 576 ft | 127 kts | 297° |
| 2026-04-22 15:37 | 29.60187 | 47.66441 | 624 ft | 93 kts | 295° |
| 2026-04-22 15:37 | 29.60440 | 47.65788 | 592 ft | 90 kts | 295° |
| 2026-04-22 15:37 | 29.60706 | 47.65119 | 588 ft | 93 kts | 295° |
| 2026-04-22 15:38 | 29.60982 | 47.64426 | 582 ft | 97 kts | 295° |
| 2026-04-22 15:38 | 29.61552 | 47.62986 | 578 ft | 100 kts | 295° |
| 2026-04-22 15:38 | 29.61844 | 47.62255 | 579 ft | 101 kts | 295° |
| 2026-04-22 15:39 | 29.62131 | 47.61534 | 579 ft | 100 kts | 295° |
| 2026-04-22 15:39 | 29.62423 | 47.60800 | 579 ft | 101 kts | 295° |
| 2026-04-22 15:39 | 29.62719 | 47.60063 | 577 ft | 102 kts | 295° |
| 2026-04-22 15:39 | 29.63015 | 47.59321 | 579 ft | 102 kts | 295° |
| 2026-04-22 15:40 | 29.63311 | 47.58582 | 583 ft | 101 kts | 295° |
| 2026-04-22 15:40 | 29.63602 | 47.57856 | 577 ft | 100 kts | 295° |
| 2026-04-22 15:40 | 29.63827 | 47.57111 | 581 ft | 97 kts | 287° |
| 2026-04-22 15:40 | 29.63895 | 47.56346 | 578 ft | 97 kts | 279° |
| 2026-04-22 15:41 | 29.63936 | 47.55572 | 578 ft | 97 kts | 274° |
| 2026-04-22 15:41 | 29.63959 | 47.54788 | 576 ft | 99 kts | 274° |
| 2026-04-22 15:41 | 29.63994 | 47.53991 | 577 ft | 100 kts | 274° |
| 2026-04-22 15:41 | 29.64027 | 47.53203 | 585 ft | 97 kts | 274° |
| 2026-04-22 15:42 | 29.64058 | 47.52453 | 580 ft | 95 kts | 274° |
| 2026-04-22 15:42 | 29.64090 | 47.51687 | 581 ft | 96 kts | 274° |
| 2026-04-22 15:42 | 29.64123 | 47.50919 | 579 ft | 96 kts | 274° |
| 2026-04-22 15:42 | 29.64158 | 47.50239 | 664 ft | 74 kts | 276° |
| 2026-04-22 15:43 | 29.64234 | 47.49657 | 723 ft | 84 kts | 281° |
| 2026-04-22 15:43 | 29.64438 | 47.48894 | 855 ft | 113 kts | 289° |
| 2026-04-22 15:43 | 29.64726 | 47.47962 | 759 ft | 132 kts | 290° |
| 2026-04-22 15:43 | 29.65070 | 47.46950 | 728 ft | 137 kts | 292° |
| 2026-04-22 15:44 | 29.65439 | 47.45938 | 957 ft | 137 kts | 293° |
| 2026-04-22 15:44 | 29.65917 | 47.45080 | 960 ft | 119 kts | 307° |
| 2026-04-22 15:44 | 29.66486 | 47.44400 | 833 ft | 116 kts | 316° |
| 2026-04-22 15:44 | 29.67075 | 47.43880 | 777 ft | 100 kts | 325° |
| 2026-04-22 15:45 | 29.67703 | 47.43619 | 684 ft | 94 kts | 344° |
| 2026-04-22 15:45 | 29.68331 | 47.43587 | 595 ft | 86 kts | 358° |
| 2026-04-22 15:45 | 29.68857 | 47.43589 | 491 ft | 65 kts | 0° |
| 2026-04-22 15:45 | 29.69232 | 47.43587 | 434 ft | 37 kts | 2° |
| 2026-04-22 15:46 | 29.69378 | 47.43582 | 434 ft | 13 kts | 355° |
| 2026-04-22 15:46 | 29.69437 | 47.43557 | 437 ft | 11 kts | 268° |
| 2026-04-22 15:46 | 29.69399 | 47.43440 | 438 ft | 23 kts | 229° |
| 2026-04-22 15:46 | 29.69265 | 47.43348 | 441 ft | 28 kts | 186° |
| 2026-04-22 15:47 | 29.69114 | 47.43408 | 450 ft | 18 kts | 179° |
| 2026-04-22 15:47 | 29.69030 | 47.43407 | 447 ft | 10 kts | 186° |
| 2026-04-22 15:47 | 29.68990 | 47.43408 | 428 ft | 1 kts | 191° |
| 2026-04-22 15:47 | 29.68989 | 47.43408 | 428 ft | 0 kts | 191° |